createdAt,value
2018-12-26T00:02:32.242Z,41.00
2018-12-26T00:05:20.334Z,41.60
2018-12-26T00:08:10.157Z,42.10
2018-12-26T00:14:07.113Z,43.70
2018-12-26T00:16:55.210Z,44.50
2018-12-26T00:19:43.450Z,43.80
2018-12-26T00:22:31.782Z,46.00
2018-12-26T00:25:19.769Z,46.70
2018-12-26T00:28:00.490Z,47.20
2018-12-26T00:30:41.417Z,46.90
2018-12-26T00:33:23.279Z,45.50
2018-12-26T00:36:04.516Z,46.60
2018-12-26T00:38:45.473Z,47.00
2018-12-26T00:41:26.288Z,46.90
2018-12-26T00:44:07.041Z,47.10
2018-12-26T00:46:47.749Z,47.10
2018-12-26T00:49:28.534Z,47.40
2018-12-26T00:52:09.777Z,47.60
2018-12-26T00:54:50.425Z,48.00
2018-12-26T00:57:30.957Z,48.10
2018-12-26T01:00:12.007Z,47.60
2018-12-26T01:02:52.787Z,47.20
2018-12-26T01:05:33.709Z,46.60
2018-12-26T01:08:02.921Z,46.70
2018-12-26T01:10:51.291Z,46.60
2018-12-26T01:13:39.584Z,47.20
2018-12-26T01:16:27.786Z,46.90
2018-12-26T01:19:16.040Z,47.10
2018-12-26T01:22:04.125Z,46.40
2018-12-26T01:24:52.119Z,49.60
2018-12-26T01:27:32.571Z,50.80
2018-12-26T01:30:13.229Z,53.00
2018-12-26T01:32:54.053Z,54.60
2018-12-26T01:35:35.052Z,55.60
2018-12-26T01:38:15.754Z,56.70
2018-12-26T01:43:38.899Z,58.20
2018-12-26T01:46:19.834Z,57.80
2018-12-26T01:49:00.702Z,57.70
2018-12-26T01:51:41.225Z,60.20
2018-12-26T01:54:22.204Z,59.70
2018-12-26T01:57:03.384Z,60.30
2018-12-26T01:59:44.237Z,61.60
2018-12-26T02:05:09.235Z,62.50
2018-12-26T02:07:49.714Z,61.90
2018-12-26T02:10:30.284Z,61.10
2018-12-26T02:13:13.420Z,62.10
2018-12-26T02:15:54.061Z,61.80
2018-12-26T02:18:35.370Z,61.80
2018-12-26T02:21:16.604Z,62.30
2018-12-26T02:26:36.337Z,62.20
2018-12-26T02:29:13.044Z,62.70
2018-12-26T02:31:54.279Z,61.50
2018-12-26T02:34:35.496Z,62.70
2018-12-26T02:37:16.489Z,63.30
2018-12-26T02:39:57.245Z,62.60
2018-12-26T02:42:38.316Z,62.70
2018-12-26T02:45:19.045Z,62.60
2018-12-26T02:48:00.412Z,62.50
2018-12-26T02:50:40.837Z,62.70
2018-12-26T02:53:21.774Z,62.80
2018-12-26T02:56:02.353Z,63.30
2018-12-26T02:58:43.168Z,63.50
2018-12-26T03:01:23.866Z,62.00
2018-12-26T03:04:04.746Z,62.00
2018-12-26T03:06:45.803Z,63.20
2018-12-26T03:09:26.626Z,62.80
2018-12-26T03:12:07.918Z,62.00
2018-12-26T03:14:37.210Z,63.00
2018-12-26T03:17:25.396Z,62.10
2018-12-26T03:20:16.014Z,62.50
2018-12-26T03:23:04.118Z,63.80
2018-12-26T03:28:52.891Z,63.60
2018-12-26T03:34:17.086Z,64.90
2018-12-26T03:37:05.434Z,64.20
2018-12-26T03:39:53.601Z,64.00
2018-12-26T03:42:41.865Z,64.00
2018-12-26T03:45:30.249Z,63.50
2018-12-26T03:51:25.808Z,63.00
2018-12-26T03:54:13.921Z,61.10
2018-12-26T03:57:06.233Z,61.40
2018-12-26T04:02:44.790Z,62.20
2018-12-26T04:05:32.920Z,62.50
2018-12-26T04:08:21.033Z,62.40
2018-12-26T04:11:09.161Z,62.40
2018-12-26T04:13:57.304Z,61.30
2018-12-26T04:16:45.372Z,62.40
2018-12-26T04:19:33.601Z,62.30
2018-12-26T04:22:21.700Z,62.20
2018-12-26T04:25:09.817Z,62.90
2018-12-26T04:27:57.932Z,63.00
2018-12-26T04:30:39.231Z,62.50
2018-12-26T04:33:20.028Z,62.10
2018-12-26T04:36:00.412Z,61.00
2018-12-26T04:38:41.188Z,62.10
2018-12-26T04:41:22.128Z,62.40
2018-12-26T04:44:02.694Z,62.00
2018-12-26T04:46:43.365Z,61.30
2018-12-26T04:49:24.006Z,61.10
2018-12-26T04:52:04.397Z,61.10
2018-12-26T04:54:45.059Z,61.00
2018-12-26T04:57:25.630Z,61.60
2018-12-26T05:00:06.760Z,62.40
2018-12-26T05:02:47.993Z,62.20
2018-12-26T05:05:28.963Z,62.30
2018-12-26T05:08:10.410Z,62.80
2018-12-26T05:10:51.557Z,62.80
2018-12-26T05:13:32.302Z,62.80
2018-12-26T05:16:13.101Z,62.20
2018-12-26T05:18:53.725Z,62.10
2018-12-26T05:21:34.369Z,60.90
2018-12-26T05:24:15.117Z,60.00
2018-12-26T05:26:55.910Z,60.30
2018-12-26T05:29:36.575Z,60.90
2018-12-26T05:32:17.078Z,61.40
2018-12-26T05:34:58.050Z,61.50
2018-12-26T05:37:38.896Z,61.80
2018-12-26T05:40:19.994Z,62.30
2018-12-26T05:43:00.916Z,62.90
2018-12-26T05:45:42.113Z,62.20
2018-12-26T05:48:22.424Z,63.30
2018-12-26T05:51:03.236Z,63.70
2018-12-26T05:53:43.813Z,62.60
2018-12-26T05:56:24.852Z,61.70
2018-12-26T05:59:06.092Z,62.00
2018-12-26T06:01:47.078Z,61.40
2018-12-26T06:04:27.784Z,61.20
2018-12-26T06:07:08.345Z,60.70
2018-12-26T06:09:49.502Z,61.00
2018-12-26T06:12:30.540Z,63.10
2018-12-26T06:15:11.887Z,61.90
2018-12-26T06:17:52.848Z,61.90
2018-12-26T06:20:33.508Z,62.40
2018-12-26T06:23:14.561Z,61.90
2018-12-26T06:25:54.959Z,60.60
2018-12-26T06:28:35.798Z,59.50
2018-12-26T06:31:16.909Z,59.80
2018-12-26T06:33:57.249Z,59.50
2018-12-26T06:36:45.433Z,59.20
2018-12-26T06:39:33.706Z,59.00
2018-12-26T06:42:21.850Z,59.10
2018-12-26T06:45:10.117Z,59.80
2018-12-26T06:47:58.316Z,59.60
2018-12-26T06:50:46.598Z,59.70
2018-12-26T06:53:34.952Z,59.70
2018-12-26T06:56:24.815Z,58.40
2018-12-26T06:59:13.362Z,58.20
2018-12-26T07:02:01.631Z,58.20
2018-12-26T07:04:52.166Z,58.50
2018-12-26T07:07:40.313Z,59.80
2018-12-26T07:10:28.666Z,59.40
2018-12-26T07:13:16.729Z,59.90
2018-12-26T07:16:08.181Z,59.80
2018-12-26T07:24:32.278Z,58.00
2018-12-26T07:27:20.782Z,59.10
2018-12-26T07:32:49.573Z,60.00
2018-12-26T07:41:43.458Z,56.30
2018-12-26T07:44:24.305Z,57.90
2018-12-26T07:47:04.681Z,58.30
2018-12-26T07:49:45.625Z,58.90
2018-12-26T07:52:26.332Z,58.30
2018-12-26T07:55:06.885Z,58.50
2018-12-26T07:57:47.361Z,58.00
2018-12-26T08:00:28.292Z,57.70
2018-12-26T08:03:09.440Z,58.60
2018-12-26T08:05:50.042Z,58.60
2018-12-26T08:08:30.686Z,58.20
2018-12-26T08:11:11.054Z,57.60
2018-12-26T08:13:52.054Z,57.90
2018-12-26T08:16:32.509Z,56.80
2018-12-26T08:19:13.383Z,56.80
2018-12-26T08:21:53.915Z,57.60
2018-12-26T08:24:35.133Z,58.40
2018-12-26T08:27:15.976Z,58.00
2018-12-26T08:29:57.097Z,58.20
2018-12-26T08:32:41.293Z,59.00
2018-12-26T08:35:22.003Z,58.90
2018-12-26T08:41:01.479Z,58.90
2018-12-26T08:43:41.942Z,59.40
2018-12-26T08:46:22.301Z,59.20
2018-12-26T08:49:03.218Z,59.50
2018-12-26T08:51:43.549Z,59.30
2018-12-26T08:54:24.192Z,59.90
2018-12-26T08:57:04.793Z,60.50
2018-12-26T08:59:46.013Z,59.90
2018-12-26T09:02:27.286Z,60.40
2018-12-26T09:05:08.408Z,61.20
2018-12-26T09:10:50.477Z,60.80
2018-12-26T09:13:38.497Z,60.00
2018-12-26T09:19:01.489Z,60.10
2018-12-26T09:21:49.486Z,60.20
2018-12-26T09:24:37.562Z,58.10
2018-12-26T09:27:25.711Z,56.70
2018-12-26T09:30:06.797Z,56.10
2018-12-26T09:32:47.433Z,58.40
2018-12-26T09:35:27.722Z,58.40
2018-12-26T09:38:08.554Z,59.00
2018-12-26T09:40:49.349Z,59.10
2018-12-26T09:43:29.816Z,58.30
2018-12-26T09:46:10.878Z,58.50
2018-12-26T09:48:51.241Z,58.90
2018-12-26T09:51:32.314Z,58.60
2018-12-26T09:56:56.920Z,56.60
2018-12-26T10:02:24.148Z,57.00
2018-12-26T10:05:04.689Z,57.40
2018-12-26T10:07:45.366Z,57.90
2018-12-26T10:10:26.058Z,58.00
2018-12-26T10:13:07.057Z,58.60
2018-12-26T10:18:37.565Z,59.60
2018-12-26T10:21:18.039Z,59.60
2018-12-26T10:23:58.646Z,59.20
2018-12-26T10:26:39.183Z,59.30
2018-12-26T10:29:20.068Z,59.20
2018-12-26T10:32:00.873Z,58.50
2018-12-26T10:34:41.833Z,58.00
2018-12-26T10:40:35.840Z,57.90
2018-12-26T10:43:16.639Z,58.10
2018-12-26T10:45:57.520Z,58.00
2018-12-26T10:48:38.229Z,57.60
2018-12-26T10:51:18.876Z,57.40
2018-12-26T10:53:59.393Z,62.80
2018-12-26T10:56:40.398Z,60.90
2018-12-26T10:59:21.238Z,58.10
2018-12-26T11:02:01.996Z,58.70
2018-12-26T11:04:42.661Z,57.90
2018-12-26T11:07:23.505Z,57.60
2018-12-26T11:10:04.421Z,57.50
2018-12-26T11:12:45.365Z,56.60
2018-12-26T11:15:26.465Z,56.50
2018-12-26T11:18:07.359Z,56.50
2018-12-26T11:20:48.461Z,56.50
2018-12-26T11:23:29.238Z,56.30
2018-12-26T11:26:10.185Z,55.70
2018-12-26T11:28:51.104Z,56.20
2018-12-26T11:31:31.888Z,56.00
2018-12-26T11:34:00.765Z,56.50
2018-12-26T11:36:29.811Z,56.90
2018-12-26T11:39:17.911Z,57.70
2018-12-26T11:42:06.001Z,57.90
2018-12-26T11:44:54.029Z,57.90
2018-12-26T11:47:42.116Z,57.90
2018-12-26T11:50:30.293Z,57.90
2018-12-26T11:53:18.337Z,57.60
2018-12-26T11:56:06.459Z,56.60
2018-12-26T11:58:54.492Z,57.10
2018-12-26T12:01:42.647Z,56.50
2018-12-26T12:04:30.844Z,56.60
2018-12-26T12:07:18.953Z,57.10
2018-12-26T12:10:07.082Z,57.80
2018-12-26T12:12:55.214Z,57.80
2018-12-26T12:15:43.325Z,57.20
2018-12-26T12:18:31.509Z,56.40
2018-12-26T12:24:26.829Z,58.40
2018-12-26T12:27:14.933Z,58.70
2018-12-26T12:30:03.079Z,59.60
2018-12-26T12:32:44.089Z,58.90
2018-12-26T12:35:24.981Z,57.60
2018-12-26T12:38:06.196Z,56.60
2018-12-26T12:40:47.209Z,56.70
2018-12-26T12:43:27.748Z,57.00
2018-12-26T12:46:08.461Z,56.90
2018-12-26T12:48:49.013Z,57.40
2018-12-26T12:51:29.806Z,56.90
2018-12-26T12:54:10.593Z,57.10
2018-12-26T13:00:04.666Z,58.10
2018-12-26T13:02:45.398Z,57.20
2018-12-26T13:05:26.497Z,56.80
2018-12-26T13:08:07.245Z,56.80
2018-12-26T13:10:47.817Z,56.80
2018-12-26T13:13:28.612Z,56.60
2018-12-26T13:16:09.784Z,56.80
2018-12-26T13:18:50.232Z,57.60
2018-12-26T13:21:31.048Z,57.10
2018-12-26T13:24:11.640Z,56.50
2018-12-26T13:26:52.452Z,56.00
2018-12-26T13:29:33.649Z,54.60
2018-12-26T13:32:14.305Z,54.60
2018-12-26T13:34:55.122Z,54.20
2018-12-26T13:37:35.912Z,54.10
2018-12-26T13:40:16.633Z,53.70
2018-12-26T13:42:57.364Z,53.90
2018-12-26T13:45:38.229Z,54.10
2018-12-26T13:48:18.904Z,53.50
2018-12-26T13:50:59.722Z,54.00
2018-12-26T13:53:40.518Z,54.90
2018-12-26T13:56:21.305Z,55.40
2018-12-26T13:59:01.790Z,55.60
2018-12-26T14:01:42.445Z,55.20
2018-12-26T14:04:23.208Z,53.30
2018-12-26T14:07:04.145Z,53.90
2018-12-26T14:09:44.705Z,54.50
2018-12-26T14:12:25.539Z,55.50
2018-12-26T14:21:18.477Z,54.00
2018-12-26T14:23:59.205Z,54.90
2018-12-26T14:26:40.412Z,54.30
2018-12-26T14:29:21.082Z,54.90
2018-12-26T14:32:01.789Z,55.00
2018-12-26T14:34:42.162Z,55.70
2018-12-26T14:43:20.146Z,54.20
2018-12-26T14:46:00.764Z,55.90
2018-12-26T14:54:53.419Z,54.30
2018-12-26T14:57:33.892Z,55.90
2018-12-26T15:00:19.873Z,55.70
2018-12-26T15:02:56.744Z,55.90
2018-12-26T15:05:37.249Z,56.00
2018-12-26T15:08:18.189Z,56.10
2018-12-26T15:10:58.999Z,56.30
2018-12-26T15:13:39.934Z,56.30
2018-12-26T15:16:20.801Z,56.00
2018-12-26T15:19:01.311Z,55.90
2018-12-26T15:21:42.637Z,55.80
2018-12-26T15:24:23.946Z,55.80
2018-12-26T15:27:04.535Z,55.50
2018-12-26T15:29:45.080Z,54.50
2018-12-26T15:32:25.964Z,53.70
2018-12-26T15:35:06.641Z,53.80
2018-12-26T15:37:47.337Z,54.50
2018-12-26T15:40:28.396Z,55.40
2018-12-26T15:43:09.118Z,56.10
2018-12-26T15:45:49.629Z,56.60
2018-12-26T15:48:30.306Z,56.50
2018-12-26T15:51:11.133Z,57.10
2018-12-26T15:53:51.700Z,57.20
2018-12-26T15:56:32.440Z,56.40
2018-12-26T15:59:13.300Z,57.90
2018-12-26T16:01:54.417Z,57.90
2018-12-26T16:04:35.177Z,58.40
2018-12-26T16:07:16.059Z,58.30
2018-12-26T16:09:56.403Z,58.90
2018-12-26T16:15:38.145Z,59.80
2018-12-26T16:18:18.540Z,59.60
2018-12-26T16:20:59.146Z,60.20
2018-12-26T16:23:40.465Z,60.00
2018-12-26T16:26:21.109Z,60.90
2018-12-26T16:29:01.872Z,60.30
2018-12-26T16:31:42.957Z,60.80
2018-12-26T16:34:23.623Z,60.20
2018-12-26T16:37:04.389Z,60.80
2018-12-26T16:39:45.133Z,60.70
2018-12-26T16:42:26.019Z,61.00
2018-12-26T16:45:06.817Z,61.50
2018-12-26T16:47:47.327Z,60.90
2018-12-26T16:50:28.002Z,60.10
2018-12-26T16:53:08.645Z,60.60
2018-12-26T16:55:49.417Z,60.80
2018-12-26T16:58:30.444Z,61.00
2018-12-26T17:01:10.837Z,60.90
2018-12-26T17:03:51.735Z,61.10
2018-12-26T17:06:32.612Z,61.20
2018-12-26T17:09:13.848Z,61.50
2018-12-26T17:11:54.246Z,61.40
2018-12-26T17:14:34.961Z,61.40
2018-12-26T17:17:15.518Z,61.80
2018-12-26T17:19:55.957Z,61.40
2018-12-26T17:22:36.370Z,61.10
2018-12-26T17:25:17.131Z,61.20
2018-12-26T17:27:57.770Z,60.70
2018-12-26T17:30:38.270Z,61.10
2018-12-26T17:33:19.283Z,61.30
2018-12-26T17:36:00.041Z,61.60
2018-12-26T17:38:41.002Z,60.50
2018-12-26T17:41:21.822Z,60.40
2018-12-26T17:44:02.426Z,60.10
2018-12-26T17:46:43.114Z,61.00
2018-12-26T17:49:24.120Z,61.50
2018-12-26T17:52:04.713Z,62.00
2018-12-26T17:54:45.906Z,61.70
2018-12-26T17:57:26.844Z,61.80
2018-12-26T18:00:07.751Z,61.00
2018-12-26T18:02:48.440Z,61.80
2018-12-26T18:05:29.246Z,61.30
2018-12-26T18:08:10.188Z,61.80
2018-12-26T18:10:51.193Z,61.00
2018-12-26T18:13:32.064Z,61.10
2018-12-26T18:16:12.654Z,61.60
2018-12-26T18:18:53.861Z,61.90
2018-12-26T18:21:34.304Z,61.40
2018-12-26T18:24:15.181Z,60.90
2018-12-26T18:26:56.597Z,60.10
2018-12-26T18:29:37.257Z,60.20
2018-12-26T18:32:17.970Z,60.70
2018-12-26T18:34:58.465Z,61.20
2018-12-26T18:37:39.183Z,61.40
2018-12-26T18:40:19.689Z,61.30
2018-12-26T18:43:00.465Z,61.70
2018-12-26T18:51:38.153Z,59.60
2018-12-26T18:54:26.166Z,62.00
2018-12-26T18:57:14.201Z,62.10
2018-12-26T18:59:43.096Z,61.80
2018-12-26T19:02:31.112Z,61.80
2018-12-26T19:05:19.285Z,61.60
2018-12-26T19:08:07.294Z,62.20
2018-12-26T19:13:43.017Z,61.80
2018-12-26T19:16:31.048Z,61.70
2018-12-26T19:22:26.302Z,61.80
2018-12-26T19:25:14.309Z,62.10
2018-12-26T19:28:02.429Z,61.20
2018-12-26T19:30:50.540Z,61.40
2018-12-26T19:33:31.573Z,62.10
2018-12-26T19:36:12.527Z,62.10
2018-12-26T19:38:53.464Z,62.20
2018-12-26T19:41:34.266Z,61.80
2018-12-26T19:44:15.452Z,60.70
2018-12-26T19:46:57.021Z,60.30
2018-12-26T19:49:37.725Z,59.50
2018-12-26T19:52:18.641Z,60.50
2018-12-26T19:54:59.553Z,60.40
2018-12-26T19:57:40.344Z,59.40
2018-12-26T20:00:21.281Z,59.30
2018-12-26T20:03:02.009Z,58.70
2018-12-26T20:11:54.193Z,53.80
2018-12-26T20:14:34.933Z,54.20
2018-12-26T20:17:15.640Z,54.10
2018-12-26T20:19:56.469Z,54.00
2018-12-26T20:22:37.069Z,53.90
2018-12-26T20:25:17.861Z,53.70
2018-12-26T20:27:58.741Z,53.70
2018-12-26T20:30:39.356Z,53.60
2018-12-26T20:39:30.828Z,50.80
2018-12-26T20:42:11.249Z,53.10
2018-12-26T20:44:52.057Z,53.20
2018-12-26T20:47:32.601Z,54.40
2018-12-26T20:50:13.125Z,55.20
2018-12-26T20:52:53.977Z,55.40
2018-12-26T20:55:34.708Z,55.40
2018-12-26T20:58:15.616Z,55.30
2018-12-26T21:00:56.580Z,55.40
2018-12-26T21:03:37.437Z,55.50
2018-12-26T21:06:18.297Z,54.40
2018-12-26T21:08:58.897Z,55.10
2018-12-26T21:11:39.464Z,55.30
2018-12-26T21:14:20.005Z,55.20
2018-12-26T21:17:00.496Z,55.40
2018-12-26T21:19:41.260Z,55.00
2018-12-26T21:22:21.684Z,54.90
2018-12-26T21:25:02.301Z,54.40
2018-12-26T21:27:42.989Z,54.70
2018-12-26T21:30:24.100Z,54.50
2018-12-26T21:33:04.683Z,54.20
2018-12-26T21:35:45.052Z,54.20
2018-12-26T21:38:25.642Z,54.80
2018-12-26T21:41:06.426Z,55.10
2018-12-26T21:49:58.639Z,52.30
2018-12-26T21:52:39.434Z,52.60
2018-12-26T21:55:20.219Z,52.70
2018-12-26T21:58:01.493Z,53.80
2018-12-26T22:00:42.633Z,54.10
2018-12-26T22:03:23.619Z,54.50
2018-12-26T22:06:04.376Z,54.80
2018-12-26T22:08:45.412Z,54.10
2018-12-26T22:11:26.601Z,54.60
2018-12-26T22:14:07.746Z,55.50
2018-12-26T22:16:48.141Z,55.50
2018-12-26T22:19:28.985Z,55.50
2018-12-26T22:22:09.509Z,55.60
2018-12-26T22:24:50.237Z,55.60
2018-12-26T22:27:31.180Z,55.70
2018-12-26T22:30:11.869Z,56.20
2018-12-26T22:35:51.569Z,55.90
2018-12-26T22:38:31.912Z,55.30
2018-12-26T22:41:12.648Z,55.50
2018-12-26T22:43:53.218Z,56.50
2018-12-26T22:46:34.045Z,56.70
2018-12-26T22:49:14.621Z,56.40
2018-12-26T22:51:55.265Z,56.40
2018-12-26T22:54:35.908Z,57.00
2018-12-26T22:57:16.549Z,57.50
2018-12-26T22:59:57.486Z,57.80
2018-12-26T23:02:39.266Z,58.00
2018-12-26T23:05:20.841Z,57.70
2018-12-26T23:08:01.710Z,57.80
2018-12-26T23:10:42.559Z,58.60
2018-12-26T23:13:23.185Z,59.40
2018-12-26T23:16:04.164Z,59.50
2018-12-26T23:18:45.222Z,60.00
2018-12-26T23:21:25.893Z,60.20
2018-12-26T23:23:54.869Z,59.60
2018-12-26T23:26:23.672Z,61.80
2018-12-26T23:28:52.560Z,61.60
2018-12-26T23:31:21.471Z,62.50
2018-12-26T23:33:50.276Z,62.50
2018-12-26T23:36:19.228Z,61.80
2018-12-26T23:38:47.991Z,61.10
2018-12-26T23:41:16.903Z,60.60
2018-12-26T23:43:45.772Z,60.80
2018-12-26T23:46:14.853Z,60.90
2018-12-26T23:48:43.624Z,60.90
2018-12-26T23:51:12.428Z,60.90
2018-12-26T23:53:41.393Z,60.20
2018-12-26T23:56:10.386Z,60.20
2018-12-26T23:58:39.240Z,60.80
